Time;durP1;ratioP1;P1;durP2;ratioP2;P2;SDS_P1;SDS_P2;PMS_P1;PMS_P2;Temp;Humidity;BMP_temperature;BMP_pressure;BME280_temperature;BME280_humidity;BME280_pressure;Samples;Min_cycle;Max_cycle;Signal;HPM_P1;HPM_P2
2024/02/04 00:08:54;;;;;;;5.90;1.60;;;;;;;7.36;67.59;97817.43;102733;1291;599943;-26
2024/02/04 00:11:21;;;;;;;4.10;1.10;;;;;;;7.31;67.35;97816.27;105013;1270;61158;-26
2024/02/04 00:13:49;;;;;;;2.80;1.30;;;;;;;7.24;67.74;97824.15;104822;1266;61120;-27
2024/02/04 00:16:17;;;;;;;2.50;1.10;;;;;;;7.04;67.75;97799.39;104760;1272;72213;-27
2024/02/04 00:18:45;;;;;;;6.50;1.70;;;;;;;6.82;68.73;97820.14;104787;1273;74289;-26
2024/02/04 00:28:50;;;;;;;3.10;1.50;;;;;;;7.11;67.17;97812.78;102664;1295;600255;-28
2024/02/04 00:31:17;;;;;;;2.30;1.20;;;;;;;7.07;67.26;97820.19;104791;1273;61197;-26
2024/02/04 00:33:45;;;;;;;2.80;1.20;;;;;;;7.00;67.39;97817.17;104782;1271;61202;-27
2024/02/04 00:36:14;;;;;;;1.60;0.90;;;;;;;6.94;67.31;97819.42;104797;1272;71043;-26
2024/02/04 00:38:42;;;;;;;2.20;1.10;;;;;;;6.77;67.73;97808.14;105029;1268;74277;-27
2024/02/04 00:41:11;;;;;;;2.90;1.20;;;;;;;6.71;68.17;97827.95;104872;1269;72657;-27
2024/02/04 00:43:38;;;;;;;2.30;1.10;;;;;;;6.61;68.34;97833.30;105108;1263;195943;-26
2024/02/04 00:46:07;;;;;;;2.00;1.10;;;;;;;6.82;68.05;97817.17;105184;1262;61089;-26
2024/02/04 00:48:40;;;;;;;1.80;1.20;;;;;;;7.14;66.68;97824.64;105086;1269;72238;-27
2024/02/04 00:51:08;;;;;;;3.00;0.80;;;;;;;7.13;66.41;97818.13;104890;1270;73501;-28
2024/02/04 00:53:36;;;;;;;3.20;1.10;;;;;;;6.96;67.02;97817.34;105059;1266;71565;-27
2024/02/04 00:56:05;;;;;;;2.50;1.10;;;;;;;6.84;67.48;97799.58;105094;1264;61253;-26
2024/02/04 00:58:32;;;;;;;2.30;0.80;;;;;;;6.62;68.17;97797.84;105212;1263;61112;-26
2024/02/04 01:01:00;;;;;;;9.30;1.90;;;;;;;6.66;68.00;97800.23;104974;1261;73045;-26
2024/02/04 01:03:29;;;;;;;1.70;0.80;;;;;;;6.54;68.53;97818.11;104935;1260;74314;-26
2024/02/04 01:05:57;;;;;;;2.90;1.10;;;;;;;6.77;67.90;97817.57;104841;1267;72037;-26
2024/02/04 01:16:03;;;;;;;2.10;0.90;;;;;;;6.91;66.38;97812.27;102765;1293;599293;-26
2024/02/04 01:18:32;;;;;;;1.90;0.80;;;;;;;6.88;66.63;97825.98;104856;1266;61116;-26
2024/02/04 01:21:00;;;;;;;4.00;1.50;;;;;;;6.68;67.14;97822.34;104888;1266;61101;-26
2024/02/04 01:23:28;;;;;;;1.70;0.60;;;;;;;6.56;67.75;97822.30;104995;1265;72232;-26
2024/02/04 01:25:56;;;;;;;1.50;1.00;;;;;;;6.46;68.22;97815.88;104786;1270;74323;-26
2024/02/04 01:36:04;;;;;;;1.80;0.80;;;;;;;6.75;67.05;97804.27;102718;1297;599280;-25
2024/02/04 01:38:32;;;;;;;2.70;0.90;;;;;;;6.69;67.33;97808.28;104892;1269;61200;-25
2024/02/04 01:40:59;;;;;;;5.70;1.40;;;;;;;6.59;67.84;97815.14;104807;1264;61280;-25
2024/02/04 01:43:27;;;;;;;3.00;0.90;;;;;;;6.42;68.40;97800.04;104822;1263;71012;-27
2024/02/04 01:45:55;;;;;;;2.20;0.80;;;;;;;6.32;68.82;97801.55;104874;1269;74349;-25
2024/02/04 01:48:23;;;;;;;3.80;0.90;;;;;;;6.44;68.69;97799.48;104838;1270;71671;-27
2024/02/04 01:50:51;;;;;;;4.90;1.60;;;;;;;6.61;67.97;97799.63;104843;1273;214530;-27
2024/02/04 01:53:19;;;;;;;4.10;1.50;;;;;;;6.69;67.54;97803.95;105056;1269;61157;-27
2024/02/04 01:55:48;;;;;;;2.40;0.70;;;;;;;6.60;67.76;97804.55;104859;1272;72229;-28
2024/02/04 01:58:16;;;;;;;1.60;1.00;;;;;;;6.48;68.36;97802.77;105184;1264;74294;-25
2024/02/04 02:00:45;;;;;;;3.20;1.50;;;;;;;6.40;68.71;97799.48;104994;1264;72753;-26
2024/02/04 02:03:13;;;;;;;4.60;1.40;;;;;;;6.26;69.51;97804.98;105458;1260;61020;-26
2024/02/04 02:13:20;;;;;;;2.10;1.30;;;;;;;6.46;67.73;97783.16;102719;1290;599437;-25
2024/02/04 02:15:51;;;;;;;4.60;1.00;;;;;;;6.37;67.91;97792.15;104817;1271;61178;-27
2024/02/04 02:18:27;;;;;;;4.40;1.40;;;;;;;6.31;67.99;97787.15;104840;1265;61175;-27
2024/02/04 02:21:23;;;;;;;3.70;1.20;;;;;;;6.15;68.51;97799.15;104850;1266;72260;-28
2024/02/04 02:24:11;;;;;;;1.80;0.70;;;;;;;6.03;68.88;97797.20;104815;1266;73095;-27
2024/02/04 02:26:40;;;;;;;2.30;1.20;;;;;;;6.34;68.11;97801.03;104829;1267;152960;-27
2024/02/04 02:29:08;;;;;;;1.50;0.90;;;;;;;6.48;67.12;97793.13;105131;1263;61212;-28
2024/02/04 02:31:37;;;;;;;2.80;1.10;;;;;;;6.43;66.97;97806.17;105190;1263;61075;-27
2024/02/04 02:34:15;;;;;;;1.70;1.00;;;;;;;6.11;68.01;97797.89;104818;1264;72226;-26
2024/02/04 02:36:53;;;;;;;3.50;1.20;;;;;;;6.02;68.24;97804.34;104889;1264;74464;-27
2024/02/04 02:39:31;;;;;;;3.00;1.00;;;;;;;5.86;68.65;97800.48;104815;1264;71476;-27
2024/02/04 02:41:59;;;;;;;4.00;1.30;;;;;;;5.66;68.93;97791.55;104693;1272;61216;-27
2024/02/04 02:52:08;;;;;;;2.90;1.00;;;;;;;6.02;67.32;97801.20;102707;1292;599493;-25
2024/02/04 02:54:36;;;;;;;2.60;1.00;;;;;;;5.89;67.41;97806.23;104805;1270;61243;-27
2024/02/04 02:57:04;;;;;;;3.30;1.00;;;;;;;5.73;68.01;97814.57;104862;1266;61118;-28
2024/02/04 02:59:32;;;;;;;2.20;0.80;;;;;;;5.50;68.90;97811.46;104892;1266;71025;-25
2024/02/04 03:02:00;;;;;;;3.50;1.10;;;;;;;5.30;69.49;97805.96;104852;1272;73331;-25
2024/02/04 03:04:28;;;;;;;3.50;1.10;;;;;;;5.38;69.78;97820.33;104806;1271;72653;-30
2024/02/04 03:06:56;;;;;;;4.10;0.60;;;;;;;5.60;68.68;97809.94;104658;1266;192049;-27
2024/02/04 03:09:24;;;;;;;2.30;1.00;;;;;;;5.84;67.63;97816.49;104833;1267;61141;-28
2024/02/04 03:19:32;;;;;;;8.40;1.60;;;;;;;5.39;69.08;97812.63;102690;1292;598732;-26
2024/02/04 03:22:00;;;;;;;2.40;1.10;;;;;;;5.31;69.48;97824.47;104852;1266;61203;-26
2024/02/04 03:31:23;;;;;;;1.50;0.70;;;;;;;5.77;67.28;97818.73;102685;1295;600114;-25
2024/02/04 03:33:51;;;;;;;1.20;0.80;;;;;;;5.76;67.20;97821.23;104856;1267;61176;-25
2024/02/04 03:36:23;;;;;;;5.80;1.50;;;;;;;5.65;67.48;97834.50;104952;1264;61081;-25
2024/02/04 03:38:51;;;;;;;2.80;1.30;;;;;;;5.42;68.11;97817.59;104859;1269;71324;-25
2024/02/04 03:41:19;;;;;;;4.60;1.10;;;;;;;5.21;68.83;97825.42;105078;1268;73258;-25
2024/02/04 03:43:47;;;;;;;2.20;0.90;;;;;;;5.15;68.45;97820.17;105055;1269;72658;-25
2024/02/04 03:46:15;;;;;;;4.80;1.50;;;;;;;5.43;67.41;97825.77;105089;1263;61116;-28
2024/02/04 03:48:43;;;;;;;8.40;1.50;;;;;;;5.69;66.11;97830.58;105250;1260;61089;-27
2024/02/04 03:51:18;;;;;;;2.70;1.10;;;;;;;5.73;65.92;97838.69;105224;1265;70979;-27
2024/02/04 03:53:47;;;;;;;2.30;1.30;;;;;;;5.58;66.49;97842.66;105166;1260;74293;-27
2024/02/04 03:56:15;;;;;;;2.80;1.30;;;;;;;5.41;67.24;97836.05;105263;1263;72694;-28
2024/02/04 03:58:43;;;;;;;5.20;1.00;;;;;;;5.20;68.23;97836.01;105108;1264;61180;-28
2024/02/04 04:01:11;;;;;;;6.30;1.50;;;;;;;5.14;68.35;97835.05;105183;1261;61127;-28
2024/02/04 04:03:41;;;;;;;3.10;1.10;;;;;;;5.05;68.80;97819.92;105295;1261;71424;-28
2024/02/04 04:06:10;;;;;;;2.10;0.80;;;;;;;5.43;67.76;97830.92;105606;1253;74306;-27
2024/02/04 04:08:38;;;;;;;4.70;1.20;;;;;;;5.72;66.36;97833.74;105637;1260;71382;-27
2024/02/04 04:11:08;;;;;;;1.90;0.90;;;;;;;5.64;66.65;97839.11;105752;1254;61174;-27
2024/02/04 04:13:36;;;;;;;2.30;0.60;;;;;;;5.44;67.33;97834.10;105721;1253;61078;-28
2024/02/04 04:16:06;;;;;;;1.80;0.80;;;;;;;5.33;67.87;97834.43;105692;1258;71739;-28
2024/02/04 04:18:34;;;;;;;1.30;0.70;;;;;;;5.09;68.98;97840.77;105686;1254;73049;-28
2024/02/04 04:21:02;;;;;;;1.40;0.80;;;;;;;4.92;69.91;97841.58;105626;1258;71395;-25
2024/02/04 04:23:30;;;;;;;3.80;1.00;;;;;;;4.98;70.42;97844.36;105622;1254;61106;-25
2024/02/04 04:25:58;;;;;;;3.60;1.30;;;;;;;5.43;69.25;97850.87;105648;1260;61132;-28
2024/02/04 04:36:06;;;;;;;6.00;1.20;;;;;;;5.07;72.20;97854.54;103479;1288;598701;-27
2024/02/04 04:38:34;;;;;;;2.80;1.30;;;;;;;4.90;72.97;97860.84;104830;1269;61149;-28
2024/02/04 04:41:02;;;;;;;5.00;1.60;;;;;;;4.91;73.63;97851.26;104817;1271;61203;-27
2024/02/04 04:43:30;;;;;;;3.70;1.50;;;;;;;5.36;72.22;97842.16;104895;1264;70076;-27
2024/02/04 04:53:37;;;;;;;3.40;1.70;;;;;;;4.81;74.64;97822.29;102715;1293;599494;-25
2024/02/04 05:03:49;;;;;;;6.10;1.30;;;;;;;5.19;73.00;97825.60;102751;1295;600188;-25
2024/02/04 05:06:17;;;;;;;2.80;1.50;;;;;;;5.04;73.16;97828.80;105086;1267;61126;-28
2024/02/04 05:08:45;;;;;;;7.10;2.20;;;;;;;4.77;74.05;97820.07;104848;1270;61120;-28
2024/02/04 05:11:13;;;;;;;3.20;1.50;;;;;;;4.67;74.41;97825.79;104807;1265;71899;-28
2024/02/04 05:13:41;;;;;;;4.80;1.20;;;;;;;4.81;74.08;97826.46;105029;1267;74330;-28
2024/02/04 05:23:33;;;;;;;3.50;1.60;;;;;;;4.93;72.48;97812.83;102730;1294;599791;-25
2024/02/04 05:33:40;;;;;;;2.90;1.20;;;;;;;5.41;70.88;97819.41;102763;1291;599413;-25
2024/02/04 05:36:08;;;;;;;5.50;1.80;;;;;;;5.33;70.44;97822.77;104786;1271;61185;-27
2024/02/04 05:38:36;;;;;;;4.30;1.60;;;;;;;5.12;70.98;97821.28;104810;1272;61123;-27
2024/02/04 05:41:04;;;;;;;6.30;1.90;;;;;;;4.95;71.35;97821.60;105462;1262;72176;-28
2024/02/04 05:43:32;;;;;;;1.80;1.10;;;;;;;4.86;71.65;97833.27;105435;1259;74323;-28
2024/02/04 05:45:59;;;;;;;4.20;1.50;;;;;;;4.73;72.12;97834.81;105290;1260;72677;-28
2024/02/04 05:48:28;;;;;;;2.40;1.10;;;;;;;5.04;71.25;97833.96;105456;1257;170863;-28
2024/02/04 05:50:56;;;;;;;3.80;1.20;;;;;;;5.31;70.10;97836.66;105584;1257;61167;-27
2024/02/04 05:53:23;;;;;;;6.90;1.40;;;;;;;5.19;70.19;97841.03;105604;1256;69988;-28
2024/02/04 06:03:28;;;;;;;8.50;2.00;;;;;;;4.90;72.06;97843.77;102713;1293;600036;-26
2024/02/04 06:05:57;;;;;;;3.70;1.30;;;;;;;5.25;71.07;97831.31;105116;1267;61004;-28
2024/02/04 06:08:25;;;;;;;2.10;1.20;;;;;;;5.48;69.88;97849.96;104853;1269;61154;-28
2024/02/04 06:10:53;;;;;;;3.00;1.10;;;;;;;5.41;70.30;97848.15;104821;1269;71471;-28
2024/02/04 06:13:21;;;;;;;5.20;1.60;;;;;;;5.25;70.73;97849.88;104832;1267;73587;-28
2024/02/04 06:15:49;;;;;;;4.10;1.60;;;;;;;5.06;71.51;97859.98;104798;1267;72765;-28
2024/02/04 06:18:17;;;;;;;3.70;1.40;;;;;;;4.93;71.83;97853.53;104706;1264;199151;-28
2024/02/04 06:20:45;;;;;;;4.20;1.10;;;;;;;4.80;72.52;97867.31;105420;1260;61178;-28
2024/02/04 06:23:13;;;;;;;4.00;1.50;;;;;;;5.17;71.06;97869.61;105324;1257;72236;-28
2024/02/04 06:25:41;;;;;;;1.40;0.80;;;;;;;5.32;69.95;97870.38;105189;1258;74279;-28
2024/02/04 06:35:46;;;;;;;6.70;1.70;;;;;;;4.79;70.52;97876.15;102689;1292;600206;-27
2024/02/04 06:38:13;;;;;;;5.00;1.70;;;;;;;4.79;70.13;97877.31;104841;1270;61239;-27
2024/02/04 06:40:41;;;;;;;3.40;1.00;;;;;;;4.69;70.11;97876.51;104911;1267;61154;-27
2024/02/04 06:43:09;;;;;;;4.80;1.60;;;;;;;4.94;69.24;97873.94;104899;1269;72196;-27
2024/02/04 06:45:37;;;;;;;4.00;1.30;;;;;;;5.23;67.99;97881.02;104884;1271;72728;-27
2024/02/04 06:48:07;;;;;;;5.50;1.50;;;;;;;5.01;68.50;97878.75;104885;1270;72659;-27
2024/02/04 06:50:36;;;;;;;5.70;1.40;;;;;;;5.04;68.07;97874.95;104949;1266;199855;-27
2024/02/04 06:53:04;;;;;;;7.10;1.90;;;;;;;4.99;68.12;97878.23;104885;1271;61123;-27
2024/02/04 06:55:32;;;;;;;3.40;1.30;;;;;;;4.82;68.49;97880.00;105080;1264;70940;-27
2024/02/04 06:58:00;;;;;;;3.40;1.40;;;;;;;4.73;68.79;97881.41;105141;1263;74313;-28
2024/02/04 07:00:28;;;;;;;3.00;1.00;;;;;;;4.65;68.76;97881.98;105115;1268;72613;-27
2024/02/04 07:04:25;;;;;;;7.00;1.50;;;;;;;4.80;68.80;97890.12;102739;1290;600879;-25
2024/02/04 07:06:53;;;;;;;3.60;1.40;;;;;;;5.38;67.17;97888.13;104886;1267;61187;-25
2024/02/04 07:09:21;;;;;;;1.80;0.80;;;;;;;5.59;66.72;97894.74;104972;1264;61119;-25
2024/02/04 07:11:48;;;;;;;2.20;1.40;;;;;;;5.72;66.76;97892.30;105139;1267;70956;-25
2024/02/04 07:14:16;;;;;;;3.90;1.20;;;;;;;5.77;67.35;97894.46;105196;1263;74435;-25
2024/02/04 07:16:44;;;;;;;3.20;1.00;;;;;;;5.78;68.30;97891.52;105059;1266;71430;-25
2024/02/04 07:19:12;;;;;;;3.90;1.10;;;;;;;5.85;68.35;97893.02;105024;1267;198833;-25
2024/02/04 07:21:40;;;;;;;6.60;1.50;;;;;;;5.68;69.17;97883.73;105281;1260;61255;-27
2024/02/04 07:24:09;;;;;;;3.40;1.00;;;;;;;5.53;69.40;97866.45;105346;1263;72198;-27
2024/02/04 07:26:36;;;;;;;2.20;1.50;;;;;;;5.43;69.89;97866.33;105209;1266;73496;-27
2024/02/04 07:29:04;;;;;;;3.10;1.30;;;;;;;5.47;70.09;97857.47;105124;1260;72743;-27
2024/02/04 07:39:13;;;;;;;7.00;1.50;;;;;;;5.64;69.21;97874.88;102713;1292;599772;-25
2024/02/04 07:49:19;;;;;;;3.70;1.00;;;;;;;5.41;70.51;97882.39;102716;1292;600590;-27
2024/02/04 07:51:47;;;;;;;5.40;2.00;;;;;;;5.95;69.27;97888.66;105197;1265;61254;-26
2024/02/04 07:54:15;;;;;;;2.30;1.10;;;;;;;6.13;68.41;97879.48;105258;1265;61174;-27
2024/02/04 08:04:19;;;;;;;3.80;1.40;;;;;;;5.83;70.03;97882.36;102761;1294;599351;-25
2024/02/04 08:06:47;;;;;;;4.90;1.20;;;;;;;5.79;70.91;97889.55;104833;1266;61126;-25
2024/02/04 08:16:51;;;;;;;7.70;1.60;;;;;;;6.20;68.17;97881.65;102663;1292;600191;-27
2024/02/04 08:19:19;;;;;;;2.70;1.10;;;;;;;6.26;67.73;97877.15;104861;1270;61169;-28
2024/02/04 08:21:48;;;;;;;5.20;1.70;;;;;;;6.36;68.25;97890.16;105182;1267;61081;-27
2024/02/04 08:24:16;;;;;;;3.80;1.50;;;;;;;6.51;68.16;97881.92;105689;1254;72171;-27
2024/02/04 08:26:43;;;;;;;5.50;1.40;;;;;;;6.58;68.13;97877.46;105616;1259;73087;-27
2024/02/04 08:29:11;;;;;;;2.00;1.20;;;;;;;6.97;66.53;97866.13;105678;1260;72596;-27
2024/02/04 08:31:39;;;;;;;1.60;1.10;;;;;;;6.92;67.04;97884.99;105534;1260;163394;-28
2024/02/04 08:34:07;;;;;;;4.80;1.70;;;;;;;6.95;66.60;97887.50;105728;1258;61163;-27
2024/02/04 08:36:35;;;;;;;3.40;1.10;;;;;;;6.67;67.36;97889.18;105701;1258;72216;-28
2024/02/04 08:39:03;;;;;;;3.90;1.20;;;;;;;6.78;67.79;97893.98;105666;1259;74287;-27
2024/02/04 08:41:31;;;;;;;6.20;1.50;;;;;;;6.95;66.90;97885.30;105636;1259;72687;-27
2024/02/04 08:43:59;;;;;;;3.40;1.10;;;;;;;6.87;65.47;97874.21;105618;1259;61158;-27
2024/02/04 08:46:30;;;;;;;5.10;1.20;;;;;;;6.49;65.78;97863.58;105624;1258;61083;-27
2024/02/04 08:48:58;;;;;;;4.90;1.20;;;;;;;6.20;65.80;97862.48;105638;1259;73020;-28
2024/02/04 08:51:26;;;;;;;5.30;1.30;;;;;;;6.07;65.00;97871.80;105758;1260;74755;-27
2024/02/04 08:53:58;;;;;;;3.70;1.40;;;;;;;6.35;65.40;97879.40;105658;1259;72650;-27
2024/02/04 08:56:25;;;;;;;5.20;1.30;;;;;;;6.43;65.27;97879.45;105659;1259;61273;-27
2024/02/04 08:58:53;;;;;;;5.10;1.90;;;;;;;6.59;63.63;97864.42;105712;1257;61108;-27
2024/02/04 09:01:22;;;;;;;7.80;1.50;;;;;;;6.62;64.21;97860.80;105641;1259;71843;-27
2024/02/04 09:03:50;;;;;;;4.40;1.10;;;;;;;6.70;62.95;97861.12;105753;1254;74321;-27
2024/02/04 09:06:18;;;;;;;4.80;1.40;;;;;;;6.58;63.37;97861.67;105681;1259;72648;-27
2024/02/04 09:08:45;;;;;;;6.40;1.70;;;;;;;6.58;64.28;97879.18;105642;1257;61126;-27
2024/02/04 09:11:18;;;;;;;3.20;1.30;;;;;;;6.66;63.09;97873.00;105666;1259;61173;-28
2024/02/04 09:21:47;;;;;;;3.30;1.40;;;;;;;6.40;61.98;97857.20;102610;1289;615042;-26
2024/02/04 09:24:14;;;;;;;7.00;2.00;;;;;;;6.35;62.12;97868.88;105241;1263;61256;-25
2024/02/04 09:26:42;;;;;;;6.50;1.40;;;;;;;6.15;62.51;97862.92;105278;1266;61086;-27
2024/02/04 09:29:09;;;;;;;2.60;1.10;;;;;;;6.36;62.54;97858.24;105165;1266;72291;-27
2024/02/04 09:40:12;;;;;;;2.90;0.90;;;;;;;5.92;62.80;97847.14;103508;1281;617352;-28
2024/02/04 09:42:40;;;;;;;3.10;1.20;;;;;;;6.20;59.78;97834.23;104873;1267;60962;-27
2024/02/04 09:45:08;;;;;;;5.00;0.90;;;;;;;6.27;60.71;97847.10;105064;1267;61645;-28
2024/02/04 09:47:35;;;;;;;12.50;1.60;;;;;;;6.44;59.74;97839.71;104854;1267;72236;-26
2024/02/04 09:50:03;;;;;;;6.70;1.30;;;;;;;6.39;59.43;97841.66;105100;1267;74415;-26
2024/02/04 09:52:31;;;;;;;2.70;1.40;;;;;;;6.41;59.90;97840.30;104733;1263;177906;-29
2024/02/04 09:55:03;;;;;;;3.60;1.20;;;;;;;6.59;59.38;97836.20;104955;1263;61064;-26
2024/02/04 09:57:30;;;;;;;2.30;1.00;;;;;;;6.70;59.09;97836.80;105001;1269;61212;-26
2024/02/04 09:59:58;;;;;;;2.00;0.90;;;;;;;7.04;58.33;97838.58;104919;1263;72118;-26
2024/02/04 10:02:25;;;;;;;3.10;1.20;;;;;;;7.15;57.36;97842.85;105169;1263;74213;-26
2024/02/04 10:04:53;;;;;;;3.40;1.20;;;;;;;7.44;56.37;97821.30;104960;1264;72327;-26
2024/02/04 10:07:20;;;;;;;4.70;1.40;;;;;;;7.56;56.91;97814.75;105243;1263;61154;-28
2024/02/04 10:09:48;;;;;;;4.80;1.80;;;;;;;7.35;57.52;97800.36;105271;1264;61216;-26
2024/02/04 10:12:16;;;;;;;3.90;1.10;;;;;;;7.17;57.97;97801.45;105140;1263;73603;-26
2024/02/04 10:14:43;;;;;;;5.40;1.10;;;;;;;7.35;58.45;97800.55;105071;1264;74504;-26
2024/02/04 10:17:13;;;;;;;5.90;1.40;;;;;;;7.34;58.12;97796.84;105196;1262;72553;-26
2024/02/04 10:19:40;;;;;;;3.30;1.40;;;;;;;7.09;59.04;97811.31;105009;1264;63105;-26
2024/02/04 10:22:07;;;;;;;4.50;1.40;;;;;;;6.65;59.73;97802.05;105176;1269;61137;-26
2024/02/04 10:24:35;;;;;;;5.90;1.60;;;;;;;6.71;60.97;97809.13;105225;1263;72877;-28
2024/02/04 10:27:03;;;;;;;3.30;1.10;;;;;;;6.55;61.32;97793.63;105252;1264;74831;-26
2024/02/04 10:29:31;;;;;;;4.90;1.40;;;;;;;6.45;61.01;97781.49;104860;1270;72515;-26
2024/02/04 10:31:58;;;;;;;5.20;1.30;;;;;;;6.43;61.03;97783.02;105226;1264;61152;-26
2024/02/04 10:34:29;;;;;;;5.90;1.40;;;;;;;6.33;61.38;97785.55;105835;1257;61127;-26
2024/02/04 10:36:57;;;;;;;6.00;1.30;;;;;;;6.37;62.24;97815.45;105858;1254;74267;-26
2024/02/04 10:39:24;;;;;;;4.80;1.50;;;;;;;6.34;62.71;97802.78;105676;1254;74832;-26
2024/02/04 10:41:52;;;;;;;6.10;1.90;;;;;;;6.25;63.53;97803.12;105653;1254;72549;-28
2024/02/04 10:44:23;;;;;;;5.00;1.70;;;;;;;6.33;63.28;97791.64;105640;1254;61022;-26
2024/02/04 10:46:51;;;;;;;3.20;1.30;;;;;;;6.36;63.57;97787.39;105552;1254;61148;-26
2024/02/04 10:49:19;;;;;;;5.00;1.20;;;;;;;6.18;63.90;97781.48;105688;1254;73072;-26
2024/02/04 10:51:46;;;;;;;6.20;1.50;;;;;;;6.20;63.70;97782.03;105525;1254;74143;-26
2024/02/04 10:54:18;;;;;;;6.00;1.40;;;;;;;6.11;64.57;97770.56;105504;1257;72738;-26
2024/02/04 10:56:46;;;;;;;3.20;1.40;;;;;;;6.21;64.93;97795.41;105395;1254;61105;-26
2024/02/04 10:59:20;;;;;;;4.10;1.20;;;;;;;6.13;64.97;97797.29;105463;1259;61064;-26
2024/02/04 11:01:50;;;;;;;3.30;1.40;;;;;;;6.08;65.63;97794.75;105331;1254;73033;-26
2024/02/04 11:04:18;;;;;;;4.70;1.50;;;;;;;6.14;66.26;97792.15;105646;1254;74839;-27
2024/02/04 11:06:45;;;;;;;4.10;1.00;;;;;;;6.01;66.34;97783.61;105622;1254;71065;-27
2024/02/04 11:09:14;;;;;;;1.70;1.00;;;;;;;6.31;65.41;97790.10;105412;1254;61065;-27
2024/02/04 11:11:41;;;;;;;1.80;0.90;;;;;;;6.94;63.64;97789.23;105517;1254;61071;-27
2024/02/04 11:14:12;;;;;;;3.60;1.10;;;;;;;7.40;62.62;97803.06;105166;1254;72882;-27
2024/02/04 11:16:45;;;;;;;3.40;1.20;;;;;;;7.31;62.24;97806.92;105273;1262;74168;-27
2024/02/04 11:19:31;;;;;;;1.50;0.80;;;;;;;7.42;60.07;97801.70;105474;1259;72289;-27
2024/02/04 11:22:32;;;;;;;2.60;1.00;;;;;;;7.34;59.65;97788.70;105531;1254;61248;-28
2024/02/04 11:25:08;;;;;;;2.60;1.00;;;;;;;7.33;58.90;97777.77;105512;1254;61009;-26
2024/02/04 11:27:36;;;;;;;1.70;0.90;;;;;;;7.26;58.79;97776.98;105334;1254;73004;-26
2024/02/04 11:30:04;;;;;;;2.70;0.90;;;;;;;7.07;59.60;97790.90;105427;1254;74684;-26
2024/02/04 11:32:34;;;;;;;1.50;0.60;;;;;;;6.70;60.57;97783.35;105488;1259;71316;-27
2024/02/04 11:35:02;;;;;;;2.30;0.90;;;;;;;6.60;60.42;97769.38;105639;1254;61041;-26
2024/02/04 11:37:30;;;;;;;4.70;1.00;;;;;;;6.77;60.46;97784.13;105367;1259;61164;-26
2024/02/04 11:39:57;;;;;;;2.70;1.30;;;;;;;6.50;59.63;97766.09;105275;1259;73061;-26
2024/02/04 11:42:25;;;;;;;2.70;0.90;;;;;;;6.35;60.10;97782.16;105307;1254;76232;-26
2024/02/04 11:45:07;;;;;;;3.30;1.10;;;;;;;6.53;60.72;97792.03;105215;1257;72647;-26
2024/02/04 11:47:35;;;;;;;2.50;1.20;;;;;;;6.58;59.61;97785.41;105533;1254;61161;-26
2024/02/04 11:50:03;;;;;;;3.30;1.30;;;;;;;6.49;59.71;97771.52;105510;1255;61164;-27
2024/02/04 11:52:31;;;;;;;3.80;1.50;;;;;;;6.51;59.34;97785.17;105220;1254;74452;-26
2024/02/04 11:54:59;;;;;;;2.70;1.00;;;;;;;6.64;60.11;97792.15;105440;1254;75477;-26
2024/02/04 11:57:26;;;;;;;2.30;0.90;;;;;;;6.98;59.84;97779.73;105549;1257;72393;-26
2024/02/04 11:59:56;;;;;;;3.30;1.20;;;;;;;7.00;59.37;97792.54;105645;1254;61042;-26
2024/02/04 12:02:23;;;;;;;4.20;1.30;;;;;;;6.53;61.03;97797.89;105241;1260;62055;-26
2024/02/04 12:04:51;;;;;;;2.60;1.00;;;;;;;6.37;61.46;97777.48;105556;1254;74608;-26
2024/02/04 12:07:19;;;;;;;4.20;1.40;;;;;;;6.05;62.28;97769.60;105598;1255;74372;-26
2024/02/04 12:09:46;;;;;;;4.30;1.40;;;;;;;6.10;62.97;97778.89;105577;1254;74334;-26
2024/02/04 12:12:13;;;;;;;4.90;1.20;;;;;;;5.96;63.61;97764.16;105313;1254;61066;-26
2024/02/04 12:14:40;;;;;;;3.90;1.40;;;;;;;5.87;64.43;97770.39;105456;1260;61096;-25
2024/02/04 12:17:09;;;;;;;2.20;1.00;;;;;;;5.84;65.02;97767.02;105621;1254;73988;-26
2024/02/04 12:19:37;;;;;;;1.80;1.00;;;;;;;5.72;65.95;97751.67;105691;1254;74166;-26
2024/02/04 12:22:11;;;;;;;3.50;1.30;;;;;;;5.76;66.97;97740.09;105673;1253;73875;-26
2024/02/04 12:24:38;;;;;;;4.30;1.40;;;;;;;5.91;66.57;97760.90;105624;1259;61174;-27
2024/02/04 12:27:06;;;;;;;3.90;1.30;;;;;;;5.95;67.03;97760.77;105435;1260;61146;-26
2024/02/04 12:29:34;;;;;;;3.70;1.20;;;;;;;5.56;69.46;97773.58;105653;1260;73823;-25
2024/02/04 12:32:05;;;;;;;2.00;0.90;;;;;;;4.39;79.27;97788.89;105702;1259;74682;-27
2024/02/04 12:34:34;;;;;;;1.40;0.70;;;;;;;3.89;83.68;97780.04;105692;1260;72726;-25
2024/02/04 12:37:01;;;;;;;2.30;0.60;;;;;;;3.92;81.95;97762.51;105653;1254;61089;-24
2024/02/04 12:39:29;;;;;;;1.90;0.50;;;;;;;3.81;81.18;97785.65;105563;1254;62097;-24
2024/02/04 12:41:56;;;;;;;2.70;0.80;;;;;;;3.64;82.14;97782.73;105304;1254;74156;-25
2024/02/04 12:44:24;;;;;;;1.50;0.60;;;;;;;3.72;82.78;97790.54;105331;1254;76249;-25
2024/02/04 12:46:52;;;;;;;2.60;1.10;;;;;;;4.41;82.17;97789.21;105533;1254;72337;-30
2024/02/04 12:49:23;;;;;;;3.80;0.80;;;;;;;4.41;79.72;97785.16;105665;1259;61140;-22
2024/02/04 12:51:55;;;;;;;2.20;0.60;;;;;;;4.39;79.49;97801.77;105691;1254;61218;-23
2024/02/04 12:54:23;;;;;;;7.70;1.40;;;;;;;4.30;79.60;97786.67;105748;1259;72805;-23
2024/02/04 12:56:51;;;;;;;4.00;1.20;;;;;;;4.21;79.04;97783.16;105617;1259;76189;-23
2024/02/04 12:59:28;;;;;;;1.00;0.70;;;;;;;4.57;77.17;97784.94;105381;1254;73503;-22
2024/02/04 13:01:58;;;;;;;3.00;0.80;;;;;;;4.93;75.63;97800.45;105375;1254;62526;-23
2024/02/04 13:04:25;;;;;;;1.10;0.70;;;;;;;4.92;74.89;97797.52;105365;1255;61178;-23
2024/02/04 13:06:52;;;;;;;2.10;0.80;;;;;;;4.86;74.09;97783.77;105508;1259;72886;-23
2024/02/04 13:09:21;;;;;;;1.60;0.80;;;;;;;4.74;74.72;97791.39;105378;1259;74449;-23
2024/02/04 13:11:48;;;;;;;1.30;0.80;;;;;;;4.99;73.17;97787.39;105803;1254;73197;-23
2024/02/04 13:14:15;;;;;;;4.50;1.70;;;;;;;5.22;72.14;97790.59;105559;1254;61107;-23
2024/02/04 13:16:42;;;;;;;4.60;0.90;;;;;;;5.21;71.99;97795.50;105699;1254;61122;-23
2024/02/04 13:19:09;;;;;;;5.30;0.90;;;;;;;5.15;71.65;97787.73;105506;1259;73038;-23
2024/02/04 13:21:37;;;;;;;1.40;0.70;;;;;;;4.91;72.52;97797.64;105495;1257;76178;-23
2024/02/04 13:24:05;;;;;;;3.00;1.00;;;;;;;4.84;73.05;97799.55;105596;1254;74043;-23
2024/02/04 13:26:32;;;;;;;1.70;0.80;;;;;;;5.05;71.84;97802.09;105411;1260;61115;-24
2024/02/04 13:28:59;;;;;;;5.50;1.00;;;;;;;5.30;70.22;97789.30;105504;1259;61850;-24
2024/02/04 13:31:27;;;;;;;2.60;0.60;;;;;;;5.21;70.63;97806.34;105524;1258;73077;-24
2024/02/04 13:33:55;;;;;;;3.10;1.10;;;;;;;5.08;70.92;97799.27;105516;1259;75353;-24
2024/02/04 13:36:23;;;;;;;2.80;1.00;;;;;;;4.94;71.07;97796.55;105511;1259;73643;-24
2024/02/04 13:38:50;;;;;;;2.60;1.00;;;;;;;4.82;72.09;97805.39;105297;1259;61116;-24
2024/02/04 13:41:18;;;;;;;1.70;0.80;;;;;;;4.84;73.80;97774.27;105602;1255;62302;-24
2024/02/04 13:43:45;;;;;;;4.30;1.00;;;;;;;4.63;75.41;97794.46;105687;1254;73338;-26
2024/02/04 13:46:13;;;;;;;1.00;0.70;;;;;;;4.52;75.42;97796.02;105639;1254;74168;-25
2024/02/04 13:48:40;;;;;;;4.90;1.10;;;;;;;4.39;74.33;97791.46;105372;1254;74482;-25
2024/02/04 13:51:08;;;;;;;2.30;0.90;;;;;;;4.19;74.20;97789.70;105542;1259;61238;-25
2024/02/04 13:53:35;;;;;;;6.80;1.70;;;;;;;4.14;72.69;97779.61;105529;1258;61656;-25
2024/02/04 13:56:03;;;;;;;4.70;1.20;;;;;;;4.64;71.74;97808.16;105428;1255;73899;-25
2024/02/04 13:58:30;;;;;;;2.10;0.70;;;;;;;4.62;71.45;97801.06;105470;1259;74403;-25
2024/02/04 14:00:58;;;;;;;1.60;0.60;;;;;;;4.58;71.45;97802.75;105875;1257;72611;-25
2024/02/04 14:03:26;;;;;;;2.70;0.80;;;;;;;4.47;72.41;97808.70;105695;1260;61103;-25
2024/02/04 14:05:55;;;;;;;1.40;1.00;;;;;;;4.35;72.85;97807.61;105471;1266;61442;-24
2024/02/04 14:08:22;;;;;;;5.00;0.80;;;;;;;4.72;71.72;97813.69;105630;1257;73989;-25
2024/02/04 14:10:49;;;;;;;2.10;0.80;;;;;;;4.88;70.23;97812.31;105860;1257;74437;-25
2024/02/04 14:13:16;;;;;;;12.60;2.60;;;;;;;4.89;69.15;97810.69;105604;1255;74063;-25
2024/02/04 14:15:44;;;;;;;1.60;0.90;;;;;;;4.80;69.42;97809.98;105701;1258;61098;-24
2024/02/04 14:18:11;;;;;;;2.20;1.20;;;;;;;4.63;69.40;97804.23;105805;1253;61583;-25
2024/02/04 14:20:39;;;;;;;1.70;0.90;;;;;;;4.57;69.76;97813.10;105511;1257;75209;-25